sensor_id;sensor_type;location;lat;lon;timestamp;P1;durP1;ratioP1;P2;durP2;ratioP2
39750;SDS011;37579;51.074;17.004;2022-11-27T00:01:15;8.75;;;7.07;;
39750;SDS011;37579;51.074;17.004;2022-11-27T00:03:42;8.40;;;6.97;;
39750;SDS011;37579;51.074;17.004;2022-11-27T00:06:10;8.52;;;6.90;;
39750;SDS011;37579;51.074;17.004;2022-11-27T00:08:39;9.40;;;7.05;;
39750;SDS011;37579;51.074;17.004;2022-11-27T00:11:07;9.57;;;7.60;;
39750;SDS011;37579;51.074;17.004;2022-11-27T00:13:36;8.93;;;7.50;;
39750;SDS011;37579;51.074;17.004;2022-11-27T00:16:02;9.48;;;7.25;;
39750;SDS011;37579;51.074;17.004;2022-11-27T00:18:29;10.90;;;7.10;;
39750;SDS011;37579;51.074;17.004;2022-11-27T00:20:54;8.25;;;7.03;;
39750;SDS011;37579;51.074;17.004;2022-11-27T00:23:20;8.27;;;7.10;;
39750;SDS011;37579;51.074;17.004;2022-11-27T00:25:52;10.02;;;7.35;;
39750;SDS011;37579;51.074;17.004;2022-11-27T00:28:18;9.20;;;7.75;;
39750;SDS011;37579;51.074;17.004;2022-11-27T00:30:44;9.43;;;7.60;;
39750;SDS011;37579;51.074;17.004;2022-11-27T00:33:10;8.73;;;7.10;;
39750;SDS011;37579;51.074;17.004;2022-11-27T00:35:39;9.73;;;7.43;;
39750;SDS011;37579;51.074;17.004;2022-11-27T00:38:05;9.52;;;7.07;;
39750;SDS011;37579;51.074;17.004;2022-11-27T00:40:31;8.40;;;6.97;;
39750;SDS011;37579;51.074;17.004;2022-11-27T00:42:56;8.85;;;7.35;;
39750;SDS011;37579;51.074;17.004;2022-11-27T00:45:22;9.63;;;7.60;;
39750;SDS011;37579;51.074;17.004;2022-11-27T00:47:48;9.13;;;6.78;;
39750;SDS011;37579;51.074;17.004;2022-11-27T00:50:14;8.90;;;6.90;;
39750;SDS011;37579;51.074;17.004;2022-11-27T00:52:40;9.43;;;7.38;;
39750;SDS011;37579;51.074;17.004;2022-11-27T00:55:06;10.00;;;8.00;;
39750;SDS011;37579;51.074;17.004;2022-11-27T00:57:32;8.35;;;7.13;;
39750;SDS011;37579;51.074;17.004;2022-11-27T00:59:58;9.63;;;7.82;;
39750;SDS011;37579;51.074;17.004;2022-11-27T01:02:24;10.38;;;7.78;;
39750;SDS011;37579;51.074;17.004;2022-11-27T01:04:50;10.05;;;7.57;;
39750;SDS011;37579;51.074;17.004;2022-11-27T01:07:15;9.82;;;7.60;;
39750;SDS011;37579;51.074;17.004;2022-11-27T01:09:41;9.70;;;7.20;;
39750;SDS011;37579;51.074;17.004;2022-11-27T01:12:07;9.48;;;7.47;;
39750;SDS011;37579;51.074;17.004;2022-11-27T01:14:33;9.02;;;7.45;;
39750;SDS011;37579;51.074;17.004;2022-11-27T01:16:59;8.63;;;6.82;;
39750;SDS011;37579;51.074;17.004;2022-11-27T01:19:25;10.82;;;7.78;;
39750;SDS011;37579;51.074;17.004;2022-11-27T01:21:51;8.13;;;6.85;;
39750;SDS011;37579;51.074;17.004;2022-11-27T01:24:16;9.50;;;7.22;;
39750;SDS011;37579;51.074;17.004;2022-11-27T01:26:43;8.27;;;7.10;;
39750;SDS011;37579;51.074;17.004;2022-11-27T01:29:09;10.45;;;8.15;;
39750;SDS011;37579;51.074;17.004;2022-11-27T01:31:35;9.50;;;7.80;;
39750;SDS011;37579;51.074;17.004;2022-11-27T01:34:02;8.45;;;7.07;;
39750;SDS011;37579;51.074;17.004;2022-11-27T01:36:30;8.90;;;7.20;;
39750;SDS011;37579;51.074;17.004;2022-11-27T01:38:57;8.55;;;7.65;;
39750;SDS011;37579;51.074;17.004;2022-11-27T01:41:24;10.63;;;7.60;;
39750;SDS011;37579;51.074;17.004;2022-11-27T01:43:56;8.45;;;6.90;;
39750;SDS011;37579;51.074;17.004;2022-11-27T01:48:53;8.75;;;7.10;;
39750;SDS011;37579;51.074;17.004;2022-11-27T01:54:12;9.38;;;7.45;;
39750;SDS011;37579;51.074;17.004;2022-11-27T01:56:40;9.07;;;7.38;;
39750;SDS011;37579;51.074;17.004;2022-11-27T01:59:07;8.52;;;7.05;;
39750;SDS011;37579;51.074;17.004;2022-11-27T02:01:33;9.38;;;7.10;;
39750;SDS011;37579;51.074;17.004;2022-11-27T02:03:59;8.13;;;6.90;;
39750;SDS011;37579;51.074;17.004;2022-11-27T02:06:26;8.65;;;7.03;;
39750;SDS011;37579;51.074;17.004;2022-11-27T02:08:52;9.95;;;7.97;;
39750;SDS011;37579;51.074;17.004;2022-11-27T02:11:23;9.95;;;7.50;;
39750;SDS011;37579;51.074;17.004;2022-11-27T02:16:50;8.95;;;7.45;;
39750;SDS011;37579;51.074;17.004;2022-11-27T02:28:11;9.23;;;6.72;;
39750;SDS011;37579;51.074;17.004;2022-11-27T02:31:05;10.18;;;7.38;;
39750;SDS011;37579;51.074;17.004;2022-11-27T02:33:41;8.13;;;7.20;;
39750;SDS011;37579;51.074;17.004;2022-11-27T02:36:12;9.50;;;7.68;;
39750;SDS011;37579;51.074;17.004;2022-11-27T02:38:48;8.60;;;7.70;;
39750;SDS011;37579;51.074;17.004;2022-11-27T02:44:14;9.48;;;7.55;;
39750;SDS011;37579;51.074;17.004;2022-11-27T02:46:41;9.80;;;7.75;;
39750;SDS011;37579;51.074;17.004;2022-11-27T02:49:10;9.13;;;7.00;;
39750;SDS011;37579;51.074;17.004;2022-11-27T02:51:45;9.93;;;7.90;;
39750;SDS011;37579;51.074;17.004;2022-11-27T02:54:17;9.30;;;7.55;;
39750;SDS011;37579;51.074;17.004;2022-11-27T02:56:48;9.18;;;7.40;;
39750;SDS011;37579;51.074;17.004;2022-11-27T02:59:15;8.82;;;7.43;;
39750;SDS011;37579;51.074;17.004;2022-11-27T03:01:45;8.63;;;7.07;;
39750;SDS011;37579;51.074;17.004;2022-11-27T03:04:17;9.25;;;7.72;;
39750;SDS011;37579;51.074;17.004;2022-11-27T03:06:58;8.40;;;6.95;;
39750;SDS011;37579;51.074;17.004;2022-11-27T03:09:38;9.60;;;7.60;;
39750;SDS011;37579;51.074;17.004;2022-11-27T03:12:07;9.07;;;7.07;;
39750;SDS011;37579;51.074;17.004;2022-11-27T03:14:35;8.32;;;7.22;;
39750;SDS011;37579;51.074;17.004;2022-11-27T03:20:21;8.18;;;6.82;;
39750;SDS011;37579;51.074;17.004;2022-11-27T03:22:51;8.63;;;7.03;;
39750;SDS011;37579;51.074;17.004;2022-11-27T03:25:21;8.30;;;7.38;;
39750;SDS011;37579;51.074;17.004;2022-11-27T03:27:49;9.18;;;7.40;;
39750;SDS011;37579;51.074;17.004;2022-11-27T03:30:27;9.50;;;7.65;;
39750;SDS011;37579;51.074;17.004;2022-11-27T03:32:53;7.78;;;6.63;;
39750;SDS011;37579;51.074;17.004;2022-11-27T03:35:20;8.65;;;7.38;;
39750;SDS011;37579;51.074;17.004;2022-11-27T03:37:49;8.75;;;7.18;;
39750;SDS011;37579;51.074;17.004;2022-11-27T03:40:15;9.23;;;7.72;;
39750;SDS011;37579;51.074;17.004;2022-11-27T03:48:35;9.43;;;7.40;;
39750;SDS011;37579;51.074;17.004;2022-11-27T03:54:14;8.88;;;6.75;;
39750;SDS011;37579;51.074;17.004;2022-11-27T03:59:18;9.02;;;7.43;;
39750;SDS011;37579;51.074;17.004;2022-11-27T04:01:49;8.82;;;7.22;;
39750;SDS011;37579;51.074;17.004;2022-11-27T04:04:15;8.55;;;7.22;;
39750;SDS011;37579;51.074;17.004;2022-11-27T04:06:41;8.43;;;7.10;;
39750;SDS011;37579;51.074;17.004;2022-11-27T04:09:07;9.20;;;7.20;;
39750;SDS011;37579;51.074;17.004;2022-11-27T04:11:32;9.50;;;7.47;;
39750;SDS011;37579;51.074;17.004;2022-11-27T04:13:58;9.80;;;7.80;;
39750;SDS011;37579;51.074;17.004;2022-11-27T04:16:24;9.65;;;7.75;;
39750;SDS011;37579;51.074;17.004;2022-11-27T04:18:50;8.95;;;7.45;;
39750;SDS011;37579;51.074;17.004;2022-11-27T04:21:15;8.88;;;7.60;;
39750;SDS011;37579;51.074;17.004;2022-11-27T04:23:41;9.57;;;7.25;;
39750;SDS011;37579;51.074;17.004;2022-11-27T04:26:08;10.07;;;7.55;;
39750;SDS011;37579;51.074;17.004;2022-11-27T04:28:34;9.63;;;7.78;;
39750;SDS011;37579;51.074;17.004;2022-11-27T04:30:59;9.30;;;7.45;;
39750;SDS011;37579;51.074;17.004;2022-11-27T04:33:25;8.77;;;7.28;;
39750;SDS011;37579;51.074;17.004;2022-11-27T04:35:51;9.20;;;7.25;;
39750;SDS011;37579;51.074;17.004;2022-11-27T04:38:17;9.55;;;8.23;;
39750;SDS011;37579;51.074;17.004;2022-11-27T04:40:43;10.60;;;8.25;;
39750;SDS011;37579;51.074;17.004;2022-11-27T04:43:09;9.05;;;6.95;;
39750;SDS011;37579;51.074;17.004;2022-11-27T04:45:35;8.60;;;7.30;;
39750;SDS011;37579;51.074;17.004;2022-11-27T04:48:01;8.88;;;7.53;;
39750;SDS011;37579;51.074;17.004;2022-11-27T04:50:27;7.72;;;6.78;;
39750;SDS011;37579;51.074;17.004;2022-11-27T04:52:53;9.18;;;7.88;;
39750;SDS011;37579;51.074;17.004;2022-11-27T04:55:19;9.45;;;7.63;;
39750;SDS011;37579;51.074;17.004;2022-11-27T04:57:44;9.45;;;6.60;;
39750;SDS011;37579;51.074;17.004;2022-11-27T05:00:10;9.27;;;7.78;;
39750;SDS011;37579;51.074;17.004;2022-11-27T05:02:37;9.23;;;8.05;;
39750;SDS011;37579;51.074;17.004;2022-11-27T05:05:03;9.07;;;7.78;;
39750;SDS011;37579;51.074;17.004;2022-11-27T05:07:29;8.55;;;7.25;;
39750;SDS011;37579;51.074;17.004;2022-11-27T05:09:55;8.73;;;7.43;;
39750;SDS011;37579;51.074;17.004;2022-11-27T05:12:20;8.35;;;7.15;;
39750;SDS011;37579;51.074;17.004;2022-11-27T05:14:46;8.00;;;6.80;;
39750;SDS011;37579;51.074;17.004;2022-11-27T05:17:12;8.95;;;7.40;;
39750;SDS011;37579;51.074;17.004;2022-11-27T05:19:37;9.98;;;7.63;;
39750;SDS011;37579;51.074;17.004;2022-11-27T05:22:03;9.02;;;7.18;;
39750;SDS011;37579;51.074;17.004;2022-11-27T05:24:29;8.35;;;7.15;;
39750;SDS011;37579;51.074;17.004;2022-11-27T05:26:55;8.00;;;7.03;;
39750;SDS011;37579;51.074;17.004;2022-11-27T05:29:21;8.88;;;7.50;;
39750;SDS011;37579;51.074;17.004;2022-11-27T05:31:48;8.35;;;7.15;;
39750;SDS011;37579;51.074;17.004;2022-11-27T05:34:15;8.52;;;7.03;;
39750;SDS011;37579;51.074;17.004;2022-11-27T05:36:41;9.63;;;7.47;;
39750;SDS011;37579;51.074;17.004;2022-11-27T05:39:07;9.75;;;7.72;;
39750;SDS011;37579;51.074;17.004;2022-11-27T05:41:34;8.90;;;7.32;;
39750;SDS011;37579;51.074;17.004;2022-11-27T05:44:01;8.30;;;7.30;;
39750;SDS011;37579;51.074;17.004;2022-11-27T05:46:27;9.70;;;7.35;;
39750;SDS011;37579;51.074;17.004;2022-11-27T05:48:53;9.60;;;7.57;;
39750;SDS011;37579;51.074;17.004;2022-11-27T05:51:19;9.13;;;7.38;;
39750;SDS011;37579;51.074;17.004;2022-11-27T05:53:45;9.07;;;7.40;;
39750;SDS011;37579;51.074;17.004;2022-11-27T05:56:11;8.52;;;7.18;;
39750;SDS011;37579;51.074;17.004;2022-11-27T05:58:40;10.05;;;7.47;;
39750;SDS011;37579;51.074;17.004;2022-11-27T06:01:07;8.45;;;7.07;;
39750;SDS011;37579;51.074;17.004;2022-11-27T06:03:33;9.85;;;7.65;;
39750;SDS011;37579;51.074;17.004;2022-11-27T06:06:06;8.55;;;7.53;;
39750;SDS011;37579;51.074;17.004;2022-11-27T06:08:34;9.00;;;7.68;;
39750;SDS011;37579;51.074;17.004;2022-11-27T06:11:04;9.52;;;7.50;;
39750;SDS011;37579;51.074;17.004;2022-11-27T06:13:38;9.60;;;7.88;;
39750;SDS011;37579;51.074;17.004;2022-11-27T06:16:05;9.75;;;7.75;;
39750;SDS011;37579;51.074;17.004;2022-11-27T06:18:32;7.63;;;6.85;;
39750;SDS011;37579;51.074;17.004;2022-11-27T06:20:58;8.52;;;7.07;;
39750;SDS011;37579;51.074;17.004;2022-11-27T06:23:24;7.68;;;6.88;;
39750;SDS011;37579;51.074;17.004;2022-11-27T06:25:49;10.30;;;7.28;;
39750;SDS011;37579;51.074;17.004;2022-11-27T06:28:15;8.85;;;6.93;;
39750;SDS011;37579;51.074;17.004;2022-11-27T06:30:41;8.55;;;7.15;;
39750;SDS011;37579;51.074;17.004;2022-11-27T06:33:06;7.70;;;6.35;;
39750;SDS011;37579;51.074;17.004;2022-11-27T06:35:32;8.88;;;7.80;;
39750;SDS011;37579;51.074;17.004;2022-11-27T06:37:58;10.02;;;6.55;;
39750;SDS011;37579;51.074;17.004;2022-11-27T06:40:23;8.18;;;7.00;;
39750;SDS011;37579;51.074;17.004;2022-11-27T06:42:49;8.43;;;7.18;;
39750;SDS011;37579;51.074;17.004;2022-11-27T06:45:15;9.18;;;6.75;;
39750;SDS011;37579;51.074;17.004;2022-11-27T06:47:41;8.43;;;7.45;;
39750;SDS011;37579;51.074;17.004;2022-11-27T06:50:06;7.97;;;6.65;;
39750;SDS011;37579;51.074;17.004;2022-11-27T06:52:32;7.82;;;6.68;;
39750;SDS011;37579;51.074;17.004;2022-11-27T06:54:58;7.70;;;6.70;;
39750;SDS011;37579;51.074;17.004;2022-11-27T06:57:24;8.40;;;7.20;;
39750;SDS011;37579;51.074;17.004;2022-11-27T06:59:50;8.30;;;7.38;;
39750;SDS011;37579;51.074;17.004;2022-11-27T07:02:15;7.78;;;6.90;;
39750;SDS011;37579;51.074;17.004;2022-11-27T07:04:41;8.02;;;6.75;;
39750;SDS011;37579;51.074;17.004;2022-11-27T07:07:07;8.05;;;6.95;;
39750;SDS011;37579;51.074;17.004;2022-11-27T07:09:32;7.53;;;6.40;;
39750;SDS011;37579;51.074;17.004;2022-11-27T07:11:58;7.93;;;6.55;;
39750;SDS011;37579;51.074;17.004;2022-11-27T07:14:24;7.95;;;6.88;;
39750;SDS011;37579;51.074;17.004;2022-11-27T07:16:49;8.57;;;7.05;;
39750;SDS011;37579;51.074;17.004;2022-11-27T07:19:15;9.43;;;7.30;;
39750;SDS011;37579;51.074;17.004;2022-11-27T07:21:40;8.63;;;7.00;;
39750;SDS011;37579;51.074;17.004;2022-11-27T07:24:06;8.18;;;6.63;;
39750;SDS011;37579;51.074;17.004;2022-11-27T07:26:32;8.80;;;7.20;;
39750;SDS011;37579;51.074;17.004;2022-11-27T07:28:58;7.85;;;6.72;;
39750;SDS011;37579;51.074;17.004;2022-11-27T07:31:25;8.65;;;6.85;;
39750;SDS011;37579;51.074;17.004;2022-11-27T07:33:52;8.13;;;6.40;;
39750;SDS011;37579;51.074;17.004;2022-11-27T07:36:20;7.55;;;6.70;;
39750;SDS011;37579;51.074;17.004;2022-11-27T07:38:51;9.05;;;6.93;;
39750;SDS011;37579;51.074;17.004;2022-11-27T07:41:17;7.85;;;6.80;;
39750;SDS011;37579;51.074;17.004;2022-11-27T07:43:43;7.82;;;6.65;;
39750;SDS011;37579;51.074;17.004;2022-11-27T07:46:10;7.85;;;6.80;;
39750;SDS011;37579;51.074;17.004;2022-11-27T07:48:41;8.13;;;7.07;;
39750;SDS011;37579;51.074;17.004;2022-11-27T07:51:07;8.57;;;6.97;;
39750;SDS011;37579;51.074;17.004;2022-11-27T07:53:38;7.68;;;6.82;;
39750;SDS011;37579;51.074;17.004;2022-11-27T07:56:05;8.35;;;6.75;;
39750;SDS011;37579;51.074;17.004;2022-11-27T07:58:32;8.40;;;6.65;;
39750;SDS011;37579;51.074;17.004;2022-11-27T08:00:58;8.40;;;7.00;;
39750;SDS011;37579;51.074;17.004;2022-11-27T08:03:24;8.43;;;7.07;;
39750;SDS011;37579;51.074;17.004;2022-11-27T08:05:50;8.50;;;6.75;;
39750;SDS011;37579;51.074;17.004;2022-11-27T08:08:16;18.50;;;6.95;;
39750;SDS011;37579;51.074;17.004;2022-11-27T08:10:42;8.85;;;6.57;;
39750;SDS011;37579;51.074;17.004;2022-11-27T08:13:07;8.70;;;7.05;;
39750;SDS011;37579;51.074;17.004;2022-11-27T08:15:33;8.27;;;6.25;;
39750;SDS011;37579;51.074;17.004;2022-11-27T08:18:00;7.47;;;6.35;;
39750;SDS011;37579;51.074;17.004;2022-11-27T08:20:26;7.63;;;6.07;;
39750;SDS011;37579;51.074;17.004;2022-11-27T08:22:52;10.15;;;6.18;;
39750;SDS011;37579;51.074;17.004;2022-11-27T08:25:18;8.55;;;6.18;;
39750;SDS011;37579;51.074;17.004;2022-11-27T08:27:44;7.93;;;6.50;;
39750;SDS011;37579;51.074;17.004;2022-11-27T08:30:12;8.10;;;6.45;;
39750;SDS011;37579;51.074;17.004;2022-11-27T08:32:39;7.90;;;6.35;;
39750;SDS011;37579;51.074;17.004;2022-11-27T08:35:06;7.30;;;6.20;;
39750;SDS011;37579;51.074;17.004;2022-11-27T08:37:32;7.63;;;5.88;;
39750;SDS011;37579;51.074;17.004;2022-11-27T08:39:58;7.35;;;6.35;;
39750;SDS011;37579;51.074;17.004;2022-11-27T08:42:24;7.90;;;6.35;;
39750;SDS011;37579;51.074;17.004;2022-11-27T08:44:50;8.30;;;6.65;;
39750;SDS011;37579;51.074;17.004;2022-11-27T08:47:15;7.90;;;6.20;;
39750;SDS011;37579;51.074;17.004;2022-11-27T08:49:41;8.07;;;6.35;;
39750;SDS011;37579;51.074;17.004;2022-11-27T08:52:08;9.13;;;6.70;;
39750;SDS011;37579;51.074;17.004;2022-11-27T08:54:34;7.00;;;5.85;;
39750;SDS011;37579;51.074;17.004;2022-11-27T08:57:00;6.53;;;5.35;;
39750;SDS011;37579;51.074;17.004;2022-11-27T08:59:26;7.13;;;6.38;;
39750;SDS011;37579;51.074;17.004;2022-11-27T09:01:52;7.53;;;6.25;;
39750;SDS011;37579;51.074;17.004;2022-11-27T09:04:18;7.03;;;5.80;;
39750;SDS011;37579;51.074;17.004;2022-11-27T09:06:43;7.85;;;7.05;;
39750;SDS011;37579;51.074;17.004;2022-11-27T09:09:09;6.90;;;5.68;;
39750;SDS011;37579;51.074;17.004;2022-11-27T09:11:36;7.55;;;5.90;;
39750;SDS011;37579;51.074;17.004;2022-11-27T09:14:03;6.32;;;5.70;;
39750;SDS011;37579;51.074;17.004;2022-11-27T09:16:29;6.90;;;5.70;;
39750;SDS011;37579;51.074;17.004;2022-11-27T09:18:55;7.07;;;6.28;;
39750;SDS011;37579;51.074;17.004;2022-11-27T09:21:23;7.22;;;6.05;;
39750;SDS011;37579;51.074;17.004;2022-11-27T09:23:54;7.03;;;5.95;;
39750;SDS011;37579;51.074;17.004;2022-11-27T09:26:21;7.38;;;6.38;;
39750;SDS011;37579;51.074;17.004;2022-11-27T09:28:49;6.47;;;5.72;;
39750;SDS011;37579;51.074;17.004;2022-11-27T09:31:16;7.68;;;5.72;;
39750;SDS011;37579;51.074;17.004;2022-11-27T09:33:42;6.93;;;5.70;;
39750;SDS011;37579;51.074;17.004;2022-11-27T09:36:21;8.07;;;6.10;;
39750;SDS011;37579;51.074;17.004;2022-11-27T09:38:49;7.88;;;6.05;;
39750;SDS011;37579;51.074;17.004;2022-11-27T09:41:32;7.03;;;5.90;;
39750;SDS011;37579;51.074;17.004;2022-11-27T09:44:26;7.13;;;5.65;;
39750;SDS011;37579;51.074;17.004;2022-11-27T09:49:45;7.65;;;6.10;;
39750;SDS011;37579;51.074;17.004;2022-11-27T09:58:12;6.53;;;5.50;;
39750;SDS011;37579;51.074;17.004;2022-11-27T10:00:39;7.18;;;5.50;;
39750;SDS011;37579;51.074;17.004;2022-11-27T10:03:14;7.07;;;6.07;;
39750;SDS011;37579;51.074;17.004;2022-11-27T10:08:25;7.95;;;5.68;;
39750;SDS011;37579;51.074;17.004;2022-11-27T10:11:26;7.57;;;5.22;;
39750;SDS011;37579;51.074;17.004;2022-11-27T10:17:07;6.80;;;5.68;;
39750;SDS011;37579;51.074;17.004;2022-11-27T10:19:56;7.15;;;5.72;;
39750;SDS011;37579;51.074;17.004;2022-11-27T10:22:45;7.15;;;5.40;;
39750;SDS011;37579;51.074;17.004;2022-11-27T10:25:16;5.82;;;5.10;;
39750;SDS011;37579;51.074;17.004;2022-11-27T10:27:56;7.20;;;5.90;;
39750;SDS011;37579;51.074;17.004;2022-11-27T10:30:28;8.27;;;5.72;;
39750;SDS011;37579;51.074;17.004;2022-11-27T10:32:57;7.35;;;5.78;;
39750;SDS011;37579;51.074;17.004;2022-11-27T10:35:26;10.45;;;5.35;;
39750;SDS011;37579;51.074;17.004;2022-11-27T10:37:58;8.88;;;5.18;;
39750;SDS011;37579;51.074;17.004;2022-11-27T10:40:30;8.98;;;5.95;;
39750;SDS011;37579;51.074;17.004;2022-11-27T10:43:20;7.20;;;5.15;;
39750;SDS011;37579;51.074;17.004;2022-11-27T10:48:33;7.05;;;5.13;;
39750;SDS011;37579;51.074;17.004;2022-11-27T10:50:59;7.70;;;5.10;;
39750;SDS011;37579;51.074;17.004;2022-11-27T10:55:56;7.63;;;5.20;;
39750;SDS011;37579;51.074;17.004;2022-11-27T11:01:16;7.28;;;5.25;;
39750;SDS011;37579;51.074;17.004;2022-11-27T11:03:44;9.02;;;5.65;;
39750;SDS011;37579;51.074;17.004;2022-11-27T11:06:24;6.00;;;5.05;;
39750;SDS011;37579;51.074;17.004;2022-11-27T11:09:03;6.65;;;5.03;;
39750;SDS011;37579;51.074;17.004;2022-11-27T11:11:39;6.78;;;5.68;;
39750;SDS011;37579;51.074;17.004;2022-11-27T11:14:20;6.50;;;4.68;;
39750;SDS011;37579;51.074;17.004;2022-11-27T11:16:48;6.60;;;5.20;;
39750;SDS011;37579;51.074;17.004;2022-11-27T11:19:21;9.88;;;5.32;;
39750;SDS011;37579;51.074;17.004;2022-11-27T11:21:49;7.45;;;5.10;;
39750;SDS011;37579;51.074;17.004;2022-11-27T11:26:56;5.57;;;4.70;;
39750;SDS011;37579;51.074;17.004;2022-11-27T11:29:34;6.50;;;5.13;;
39750;SDS011;37579;51.074;17.004;2022-11-27T11:32:08;7.88;;;4.80;;
39750;SDS011;37579;51.074;17.004;2022-11-27T11:34:44;6.45;;;4.85;;
39750;SDS011;37579;51.074;17.004;2022-11-27T11:37:34;7.95;;;5.03;;
39750;SDS011;37579;51.074;17.004;2022-11-27T11:40:02;8.05;;;5.38;;
39750;SDS011;37579;51.074;17.004;2022-11-27T11:42:33;5.68;;;4.82;;
39750;SDS011;37579;51.074;17.004;2022-11-27T11:45:02;6.38;;;4.80;;
39750;SDS011;37579;51.074;17.004;2022-11-27T11:47:31;7.45;;;5.20;;
39750;SDS011;37579;51.074;17.004;2022-11-27T11:49:57;6.03;;;5.15;;
39750;SDS011;37579;51.074;17.004;2022-11-27T11:54:59;7.05;;;5.03;;
39750;SDS011;37579;51.074;17.004;2022-11-27T12:00:10;6.07;;;4.93;;
39750;SDS011;37579;51.074;17.004;2022-11-27T12:11:27;8.80;;;5.65;;
39750;SDS011;37579;51.074;17.004;2022-11-27T12:17:28;6.00;;;4.78;;
39750;SDS011;37579;51.074;17.004;2022-11-27T12:20:17;7.78;;;5.20;;
39750;SDS011;37579;51.074;17.004;2022-11-27T12:23:14;9.00;;;5.53;;
39750;SDS011;37579;51.074;17.004;2022-11-27T12:28:54;8.45;;;4.82;;
39750;SDS011;37579;51.074;17.004;2022-11-27T12:42:52;9.00;;;5.22;;
39750;SDS011;37579;51.074;17.004;2022-11-27T12:45:41;9.68;;;5.63;;
39750;SDS011;37579;51.074;17.004;2022-11-27T12:48:13;11.10;;;5.57;;
39750;SDS011;37579;51.074;17.004;2022-11-27T12:53:26;10.18;;;5.38;;
39750;SDS011;37579;51.074;17.004;2022-11-27T12:58:39;9.50;;;5.47;;
39750;SDS011;37579;51.074;17.004;2022-11-27T13:01:10;8.90;;;5.43;;
39750;SDS011;37579;51.074;17.004;2022-11-27T13:03:43;14.63;;;5.60;;
39750;SDS011;37579;51.074;17.004;2022-11-27T13:06:13;12.32;;;7.97;;
39750;SDS011;37579;51.074;17.004;2022-11-27T13:08:58;16.88;;;12.43;;
39750;SDS011;37579;51.074;17.004;2022-11-27T13:11:29;15.77;;;9.55;;
39750;SDS011;37579;51.074;17.004;2022-11-27T13:16:51;12.30;;;8.30;;
39750;SDS011;37579;51.074;17.004;2022-11-27T13:19:26;10.57;;;7.28;;
39750;SDS011;37579;51.074;17.004;2022-11-27T13:22:12;9.73;;;7.28;;
39750;SDS011;37579;51.074;17.004;2022-11-27T13:24:41;13.82;;;6.40;;
39750;SDS011;37579;51.074;17.004;2022-11-27T13:27:14;10.55;;;6.65;;
39750;SDS011;37579;51.074;17.004;2022-11-27T13:29:49;7.80;;;5.70;;
39750;SDS011;37579;51.074;17.004;2022-11-27T13:32:29;10.13;;;6.85;;
39750;SDS011;37579;51.074;17.004;2022-11-27T13:35:18;12.63;;;6.38;;
39750;SDS011;37579;51.074;17.004;2022-11-27T13:37:55;10.80;;;6.80;;
39750;SDS011;37579;51.074;17.004;2022-11-27T13:40:42;8.25;;;5.97;;
39750;SDS011;37579;51.074;17.004;2022-11-27T13:43:15;9.32;;;6.35;;
39750;SDS011;37579;51.074;17.004;2022-11-27T13:45:43;11.82;;;5.90;;
39750;SDS011;37579;51.074;17.004;2022-11-27T13:50:55;12.02;;;5.70;;
39750;SDS011;37579;51.074;17.004;2022-11-27T13:53:29;16.88;;;6.82;;
39750;SDS011;37579;51.074;17.004;2022-11-27T13:56:05;9.75;;;5.53;;
39750;SDS011;37579;51.074;17.004;2022-11-27T13:58:34;11.68;;;5.85;;
39750;SDS011;37579;51.074;17.004;2022-11-27T14:01:17;12.63;;;5.72;;
39750;SDS011;37579;51.074;17.004;2022-11-27T14:03:45;10.23;;;5.38;;
39750;SDS011;37579;51.074;17.004;2022-11-27T14:06:22;8.23;;;5.78;;
39750;SDS011;37579;51.074;17.004;2022-11-27T14:08:54;9.63;;;5.05;;
39750;SDS011;37579;51.074;17.004;2022-11-27T14:11:36;8.93;;;5.43;;
39750;SDS011;37579;51.074;17.004;2022-11-27T14:14:22;11.77;;;5.57;;
39750;SDS011;37579;51.074;17.004;2022-11-27T14:17:00;10.65;;;5.35;;
39750;SDS011;37579;51.074;17.004;2022-11-27T14:19:36;7.65;;;5.38;;
39750;SDS011;37579;51.074;17.004;2022-11-27T14:22:16;8.23;;;5.22;;
39750;SDS011;37579;51.074;17.004;2022-11-27T14:24:56;7.00;;;4.93;;
39750;SDS011;37579;51.074;17.004;2022-11-27T14:27:23;12.82;;;5.35;;
39750;SDS011;37579;51.074;17.004;2022-11-27T14:29:50;9.00;;;5.43;;
39750;SDS011;37579;51.074;17.004;2022-11-27T14:32:17;11.10;;;5.55;;
39750;SDS011;37579;51.074;17.004;2022-11-27T14:34:44;9.25;;;5.00;;
39750;SDS011;37579;51.074;17.004;2022-11-27T14:37:22;9.23;;;5.68;;
39750;SDS011;37579;51.074;17.004;2022-11-27T14:39:52;10.93;;;5.95;;
39750;SDS011;37579;51.074;17.004;2022-11-27T14:42:19;10.93;;;6.00;;
39750;SDS011;37579;51.074;17.004;2022-11-27T14:44:59;10.75;;;5.25;;
39750;SDS011;37579;51.074;17.004;2022-11-27T14:47:30;9.00;;;4.82;;
39750;SDS011;37579;51.074;17.004;2022-11-27T14:49:57;8.95;;;5.45;;
39750;SDS011;37579;51.074;17.004;2022-11-27T14:52:24;7.90;;;4.82;;
39750;SDS011;37579;51.074;17.004;2022-11-27T14:54:51;7.18;;;5.10;;
39750;SDS011;37579;51.074;17.004;2022-11-27T14:57:24;8.18;;;4.68;;
39750;SDS011;37579;51.074;17.004;2022-11-27T15:00:01;7.07;;;5.05;;
39750;SDS011;37579;51.074;17.004;2022-11-27T15:02:29;8.20;;;4.50;;
39750;SDS011;37579;51.074;17.004;2022-11-27T15:05:03;8.32;;;4.80;;
39750;SDS011;37579;51.074;17.004;2022-11-27T15:07:30;9.10;;;5.10;;
39750;SDS011;37579;51.074;17.004;2022-11-27T15:09:57;7.93;;;5.43;;
39750;SDS011;37579;51.074;17.004;2022-11-27T15:12:27;7.82;;;4.82;;
39750;SDS011;37579;51.074;17.004;2022-11-27T15:17:44;7.25;;;4.90;;
39750;SDS011;37579;51.074;17.004;2022-11-27T15:20:23;5.72;;;5.05;;
39750;SDS011;37579;51.074;17.004;2022-11-27T15:22:59;7.75;;;4.80;;
39750;SDS011;37579;51.074;17.004;2022-11-27T15:25:33;8.02;;;4.68;;
39750;SDS011;37579;51.074;17.004;2022-11-27T15:30:48;7.20;;;4.60;;
39750;SDS011;37579;51.074;17.004;2022-11-27T15:33:24;7.93;;;4.72;;
39750;SDS011;37579;51.074;17.004;2022-11-27T15:35:52;6.15;;;4.60;;
39750;SDS011;37579;51.074;17.004;2022-11-27T15:38:18;6.90;;;4.60;;
39750;SDS011;37579;51.074;17.004;2022-11-27T15:40:45;7.80;;;5.03;;
39750;SDS011;37579;51.074;17.004;2022-11-27T15:43:21;8.90;;;5.00;;
39750;SDS011;37579;51.074;17.004;2022-11-27T15:45:47;7.43;;;4.95;;
39750;SDS011;37579;51.074;17.004;2022-11-27T15:48:14;6.85;;;4.75;;
39750;SDS011;37579;51.074;17.004;2022-11-27T15:50:41;11.25;;;4.60;;
39750;SDS011;37579;51.074;17.004;2022-11-27T15:53:07;6.50;;;5.07;;
39750;SDS011;37579;51.074;17.004;2022-11-27T15:55:33;7.57;;;4.88;;
39750;SDS011;37579;51.074;17.004;2022-11-27T15:57:59;7.50;;;4.20;;
39750;SDS011;37579;51.074;17.004;2022-11-27T16:00:24;7.50;;;4.82;;
39750;SDS011;37579;51.074;17.004;2022-11-27T16:02:51;6.07;;;4.20;;
39750;SDS011;37579;51.074;17.004;2022-11-27T16:05:17;8.10;;;4.68;;
39750;SDS011;37579;51.074;17.004;2022-11-27T16:07:43;7.03;;;4.38;;
39750;SDS011;37579;51.074;17.004;2022-11-27T16:10:09;6.72;;;4.20;;
39750;SDS011;37579;51.074;17.004;2022-11-27T16:12:35;8.10;;;5.20;;
39750;SDS011;37579;51.074;17.004;2022-11-27T16:15:03;7.20;;;4.88;;
39750;SDS011;37579;51.074;17.004;2022-11-27T16:17:32;8.77;;;4.70;;
39750;SDS011;37579;51.074;17.004;2022-11-27T16:19:58;6.82;;;4.35;;
39750;SDS011;37579;51.074;17.004;2022-11-27T16:22:23;5.97;;;4.22;;
39750;SDS011;37579;51.074;17.004;2022-11-27T16:24:49;8.07;;;4.70;;
39750;SDS011;37579;51.074;17.004;2022-11-27T16:27:15;8.45;;;4.57;;
39750;SDS011;37579;51.074;17.004;2022-11-27T16:29:41;6.35;;;3.90;;
39750;SDS011;37579;51.074;17.004;2022-11-27T16:32:07;7.45;;;4.65;;
39750;SDS011;37579;51.074;17.004;2022-11-27T16:34:33;8.88;;;4.85;;